sensor_id;sensor_type;location;lat;lon;timestamp;temperature;humidity
23452;DHT22;11898;51.130;6.780;2023-07-02T00:00:37;20.40;99.90
23452;DHT22;11898;51.130;6.780;2023-07-02T00:03:06;20.40;99.90
23452;DHT22;11898;51.130;6.780;2023-07-02T00:05:35;20.40;99.90
23452;DHT22;11898;51.130;6.780;2023-07-02T00:08:04;20.40;99.90
23452;DHT22;11898;51.130;6.780;2023-07-02T00:10:33;20.40;99.90
23452;DHT22;11898;51.130;6.780;2023-07-02T00:13:02;20.40;99.90
23452;DHT22;11898;51.130;6.780;2023-07-02T00:15:30;20.40;99.90
23452;DHT22;11898;51.130;6.780;2023-07-02T00:17:59;20.40;99.90
23452;DHT22;11898;51.130;6.780;2023-07-02T00:20:28;20.40;99.90
23452;DHT22;11898;51.130;6.780;2023-07-02T00:22:57;20.30;99.90
23452;DHT22;11898;51.130;6.780;2023-07-02T00:25:28;20.40;99.90
23452;DHT22;11898;51.130;6.780;2023-07-02T00:27:56;20.30;99.90
23452;DHT22;11898;51.130;6.780;2023-07-02T00:30:25;20.30;99.90
23452;DHT22;11898;51.130;6.780;2023-07-02T00:32:54;20.30;99.90
23452;DHT22;11898;51.130;6.780;2023-07-02T00:35:23;20.30;99.90
23452;DHT22;11898;51.130;6.780;2023-07-02T00:37:52;20.30;99.90
23452;DHT22;11898;51.130;6.780;2023-07-02T00:40:21;20.30;99.90
23452;DHT22;11898;51.130;6.780;2023-07-02T00:42:49;20.20;99.90
23452;DHT22;11898;51.130;6.780;2023-07-02T00:45:18;20.20;99.90
23452;DHT22;11898;51.130;6.780;2023-07-02T00:47:47;20.20;99.90
23452;DHT22;11898;51.130;6.780;2023-07-02T00:50:16;20.10;99.90
23452;DHT22;11898;51.130;6.780;2023-07-02T00:52:44;20.10;99.90
23452;DHT22;11898;51.130;6.780;2023-07-02T00:55:13;20.10;99.90
23452;DHT22;11898;51.130;6.780;2023-07-02T00:57:42;20.10;99.90
23452;DHT22;11898;51.130;6.780;2023-07-02T01:00:12;20.10;99.90
23452;DHT22;11898;51.130;6.780;2023-07-02T01:02:41;20.10;99.90
23452;DHT22;11898;51.130;6.780;2023-07-02T01:05:16;20.00;99.90
23452;DHT22;11898;51.130;6.780;2023-07-02T01:07:47;20.00;99.90
23452;DHT22;11898;51.130;6.780;2023-07-02T01:10:16;20.00;99.90
23452;DHT22;11898;51.130;6.780;2023-07-02T01:12:46;20.00;99.90
23452;DHT22;11898;51.130;6.780;2023-07-02T01:15:15;19.90;99.90
23452;DHT22;11898;51.130;6.780;2023-07-02T01:17:44;19.90;99.90
23452;DHT22;11898;51.130;6.780;2023-07-02T01:20:14;19.90;99.90
23452;DHT22;11898;51.130;6.780;2023-07-02T01:22:43;19.90;99.90
23452;DHT22;11898;51.130;6.780;2023-07-02T01:25:12;19.90;99.90
23452;DHT22;11898;51.130;6.780;2023-07-02T01:27:42;20.00;99.90
23452;DHT22;11898;51.130;6.780;2023-07-02T01:30:11;19.90;99.90
23452;DHT22;11898;51.130;6.780;2023-07-02T01:32:41;19.90;99.90
23452;DHT22;11898;51.130;6.780;2023-07-02T01:35:10;19.90;99.90
23452;DHT22;11898;51.130;6.780;2023-07-02T01:37:39;19.90;99.90
23452;DHT22;11898;51.130;6.780;2023-07-02T01:40:08;19.90;99.90
23452;DHT22;11898;51.130;6.780;2023-07-02T01:42:37;19.90;99.90
23452;DHT22;11898;51.130;6.780;2023-07-02T01:45:07;19.90;99.90
23452;DHT22;11898;51.130;6.780;2023-07-02T01:47:36;19.90;99.90
23452;DHT22;11898;51.130;6.780;2023-07-02T01:50:05;19.80;99.90
23452;DHT22;11898;51.130;6.780;2023-07-02T01:52:34;19.80;99.90
23452;DHT22;11898;51.130;6.780;2023-07-02T01:55:03;19.80;99.90
23452;DHT22;11898;51.130;6.780;2023-07-02T01:57:32;19.70;99.90
23452;DHT22;11898;51.130;6.780;2023-07-02T02:00:00;19.70;99.90
23452;DHT22;11898;51.130;6.780;2023-07-02T02:02:29;19.70;99.90
23452;DHT22;11898;51.130;6.780;2023-07-02T02:04:58;19.70;99.90
23452;DHT22;11898;51.130;6.780;2023-07-02T02:07:27;19.60;99.90
23452;DHT22;11898;51.130;6.780;2023-07-02T02:09:55;19.60;99.90
23452;DHT22;11898;51.130;6.780;2023-07-02T02:12:24;19.60;99.90
23452;DHT22;11898;51.130;6.780;2023-07-02T02:14:53;19.50;99.90
23452;DHT22;11898;51.130;6.780;2023-07-02T02:17:21;19.50;99.90
23452;DHT22;11898;51.130;6.780;2023-07-02T02:19:51;19.50;99.90
23452;DHT22;11898;51.130;6.780;2023-07-02T02:22:20;19.40;99.90
23452;DHT22;11898;51.130;6.780;2023-07-02T02:24:48;19.40;99.90
23452;DHT22;11898;51.130;6.780;2023-07-02T02:27:17;19.40;99.90
23452;DHT22;11898;51.130;6.780;2023-07-02T02:29:46;19.40;99.90
23452;DHT22;11898;51.130;6.780;2023-07-02T02:32:14;19.30;99.90
23452;DHT22;11898;51.130;6.780;2023-07-02T02:34:45;19.30;99.90
23452;DHT22;11898;51.130;6.780;2023-07-02T02:37:13;19.50;99.90
23452;DHT22;11898;51.130;6.780;2023-07-02T02:39:42;19.30;99.90
23452;DHT22;11898;51.130;6.780;2023-07-02T02:42:11;19.20;99.90
23452;DHT22;11898;51.130;6.780;2023-07-02T02:44:39;19.20;99.90
23452;DHT22;11898;51.130;6.780;2023-07-02T02:47:08;19.20;99.90
23452;DHT22;11898;51.130;6.780;2023-07-02T02:49:38;19.10;99.90
23452;DHT22;11898;51.130;6.780;2023-07-02T02:52:07;19.10;99.90
23452;DHT22;11898;51.130;6.780;2023-07-02T02:54:36;19.10;99.90
23452;DHT22;11898;51.130;6.780;2023-07-02T02:57:04;19.10;99.90
23452;DHT22;11898;51.130;6.780;2023-07-02T02:59:33;19.10;99.90
23452;DHT22;11898;51.130;6.780;2023-07-02T03:02:02;19.00;99.90
23452;DHT22;11898;51.130;6.780;2023-07-02T03:04:31;19.20;99.90
23452;DHT22;11898;51.130;6.780;2023-07-02T03:07:01;19.10;99.90
23452;DHT22;11898;51.130;6.780;2023-07-02T03:09:30;19.10;99.90
23452;DHT22;11898;51.130;6.780;2023-07-02T03:11:59;19.00;99.90
23452;DHT22;11898;51.130;6.780;2023-07-02T03:14:28;18.90;99.90
23452;DHT22;11898;51.130;6.780;2023-07-02T03:16:56;18.80;99.90
23452;DHT22;11898;51.130;6.780;2023-07-02T03:19:25;19.00;99.90
23452;DHT22;11898;51.130;6.780;2023-07-02T03:21:54;18.90;99.90
23452;DHT22;11898;51.130;6.780;2023-07-02T03:24:23;18.90;99.90
23452;DHT22;11898;51.130;6.780;2023-07-02T03:26:51;18.90;99.90
23452;DHT22;11898;51.130;6.780;2023-07-02T03:29:20;18.80;99.90
23452;DHT22;11898;51.130;6.780;2023-07-02T03:31:49;18.90;99.90
23452;DHT22;11898;51.130;6.780;2023-07-02T03:34:18;18.90;99.90
23452;DHT22;11898;51.130;6.780;2023-07-02T03:36:46;18.90;99.90
23452;DHT22;11898;51.130;6.780;2023-07-02T03:39:15;18.90;99.90
23452;DHT22;11898;51.130;6.780;2023-07-02T03:41:46;18.90;99.90
23452;DHT22;11898;51.130;6.780;2023-07-02T03:44:15;18.90;99.90
23452;DHT22;11898;51.130;6.780;2023-07-02T03:46:44;18.90;99.90
23452;DHT22;11898;51.130;6.780;2023-07-02T03:49:13;18.90;99.90
23452;DHT22;11898;51.130;6.780;2023-07-02T03:51:42;18.80;99.90
23452;DHT22;11898;51.130;6.780;2023-07-02T03:54:10;18.90;99.90
23452;DHT22;11898;51.130;6.780;2023-07-02T03:56:39;18.80;99.90
23452;DHT22;11898;51.130;6.780;2023-07-02T03:59:08;18.90;99.90
23452;DHT22;11898;51.130;6.780;2023-07-02T04:01:36;18.90;99.90
23452;DHT22;11898;51.130;6.780;2023-07-02T04:04:05;18.90;99.90
23452;DHT22;11898;51.130;6.780;2023-07-02T04:06:34;18.90;99.90
23452;DHT22;11898;51.130;6.780;2023-07-02T04:09:03;18.90;99.90
23452;DHT22;11898;51.130;6.780;2023-07-02T04:11:32;18.90;99.90
23452;DHT22;11898;51.130;6.780;2023-07-02T04:14:00;18.90;99.90
23452;DHT22;11898;51.130;6.780;2023-07-02T04:16:29;19.00;99.90
23452;DHT22;11898;51.130;6.780;2023-07-02T04:18:58;19.00;99.90
23452;DHT22;11898;51.130;6.780;2023-07-02T04:21:27;18.80;99.90
23452;DHT22;11898;51.130;6.780;2023-07-02T04:23:56;18.90;99.90
23452;DHT22;11898;51.130;6.780;2023-07-02T04:26:25;18.90;99.90
23452;DHT22;11898;51.130;6.780;2023-07-02T04:28:56;19.00;99.90
23452;DHT22;11898;51.130;6.780;2023-07-02T04:31:24;18.80;99.90
23452;DHT22;11898;51.130;6.780;2023-07-02T04:33:53;18.90;99.90
23452;DHT22;11898;51.130;6.780;2023-07-02T04:36:22;19.00;99.90
23452;DHT22;11898;51.130;6.780;2023-07-02T04:38:51;19.00;99.90
23452;DHT22;11898;51.130;6.780;2023-07-02T04:41:19;18.90;99.90
23452;DHT22;11898;51.130;6.780;2023-07-02T04:43:48;19.00;99.90
23452;DHT22;11898;51.130;6.780;2023-07-02T04:46:17;19.00;99.90
23452;DHT22;11898;51.130;6.780;2023-07-02T04:48:45;19.10;99.90
23452;DHT22;11898;51.130;6.780;2023-07-02T04:51:14;19.00;99.90
23452;DHT22;11898;51.130;6.780;2023-07-02T04:53:46;19.00;99.90
23452;DHT22;11898;51.130;6.780;2023-07-02T04:56:15;19.10;99.90
23452;DHT22;11898;51.130;6.780;2023-07-02T04:58:43;19.00;99.90
23452;DHT22;11898;51.130;6.780;2023-07-02T05:01:12;19.10;99.90
23452;DHT22;11898;51.130;6.780;2023-07-02T05:03:41;19.10;99.90
23452;DHT22;11898;51.130;6.780;2023-07-02T05:06:09;19.10;99.90
23452;DHT22;11898;51.130;6.780;2023-07-02T05:08:38;19.10;99.90
23452;DHT22;11898;51.130;6.780;2023-07-02T05:11:08;19.10;99.90
23452;DHT22;11898;51.130;6.780;2023-07-02T05:13:37;19.20;99.90
23452;DHT22;11898;51.130;6.780;2023-07-02T05:16:06;19.20;99.90
23452;DHT22;11898;51.130;6.780;2023-07-02T05:18:34;19.10;99.90
23452;DHT22;11898;51.130;6.780;2023-07-02T05:21:03;19.20;99.90
23452;DHT22;11898;51.130;6.780;2023-07-02T05:23:32;19.20;99.90
23452;DHT22;11898;51.130;6.780;2023-07-02T05:26:01;19.20;99.90
23452;DHT22;11898;51.130;6.780;2023-07-02T05:28:30;19.30;99.90
23452;DHT22;11898;51.130;6.780;2023-07-02T05:30:58;19.20;99.90
23452;DHT22;11898;51.130;6.780;2023-07-02T05:33:27;19.30;99.90
23452;DHT22;11898;51.130;6.780;2023-07-02T05:35:56;19.40;99.90
23452;DHT22;11898;51.130;6.780;2023-07-02T05:38:24;19.40;99.90
23452;DHT22;11898;51.130;6.780;2023-07-02T05:40:53;19.50;99.90
23452;DHT22;11898;51.130;6.780;2023-07-02T05:43:22;19.50;99.90
23452;DHT22;11898;51.130;6.780;2023-07-02T05:45:52;19.60;99.90
23452;DHT22;11898;51.130;6.780;2023-07-02T05:48:21;19.60;99.90
23452;DHT22;11898;51.130;6.780;2023-07-02T05:50:49;19.70;99.90
23452;DHT22;11898;51.130;6.780;2023-07-02T05:53:18;19.80;99.90
23452;DHT22;11898;51.130;6.780;2023-07-02T05:55:47;19.80;99.90
23452;DHT22;11898;51.130;6.780;2023-07-02T05:58:16;19.90;99.90
23452;DHT22;11898;51.130;6.780;2023-07-02T06:00:44;20.00;99.90
23452;DHT22;11898;51.130;6.780;2023-07-02T06:03:18;20.00;99.90
23452;DHT22;11898;51.130;6.780;2023-07-02T06:05:48;20.10;99.90
23452;DHT22;11898;51.130;6.780;2023-07-02T06:08:17;20.00;99.90
23452;DHT22;11898;51.130;6.780;2023-07-02T06:10:47;18.90;99.90
23452;DHT22;11898;51.130;6.780;2023-07-02T06:13:17;20.10;99.90
23452;DHT22;11898;51.130;6.780;2023-07-02T06:15:45;20.20;99.90
23452;DHT22;11898;51.130;6.780;2023-07-02T06:18:14;20.20;99.90
23452;DHT22;11898;51.130;6.780;2023-07-02T06:20:46;20.20;99.90
23452;DHT22;11898;51.130;6.780;2023-07-02T06:23:16;20.20;99.90
23452;DHT22;11898;51.130;6.780;2023-07-02T06:25:44;20.30;99.90
23452;DHT22;11898;51.130;6.780;2023-07-02T06:28:13;20.30;99.90
23452;DHT22;11898;51.130;6.780;2023-07-02T06:30:43;20.40;99.90
23452;DHT22;11898;51.130;6.780;2023-07-02T06:33:12;20.50;99.90
23452;DHT22;11898;51.130;6.780;2023-07-02T06:35:41;20.50;99.90
23452;DHT22;11898;51.130;6.780;2023-07-02T06:38:10;20.50;99.90
23452;DHT22;11898;51.130;6.780;2023-07-02T06:40:39;20.50;99.90
23452;DHT22;11898;51.130;6.780;2023-07-02T06:43:08;20.60;99.90
23452;DHT22;11898;51.130;6.780;2023-07-02T06:45:36;20.60;99.90
23452;DHT22;11898;51.130;6.780;2023-07-02T06:48:05;20.70;99.90
23452;DHT22;11898;51.130;6.780;2023-07-02T06:50:34;20.70;99.90
23452;DHT22;11898;51.130;6.780;2023-07-02T06:53:03;20.80;99.90
23452;DHT22;11898;51.130;6.780;2023-07-02T06:55:31;20.40;99.90
23452;DHT22;11898;51.130;6.780;2023-07-02T06:58:00;21.00;99.90
23452;DHT22;11898;51.130;6.780;2023-07-02T07:00:33;21.10;99.90
23452;DHT22;11898;51.130;6.780;2023-07-02T07:03:06;21.30;99.90
23452;DHT22;11898;51.130;6.780;2023-07-02T07:05:35;21.40;99.90
23452;DHT22;11898;51.130;6.780;2023-07-02T07:08:04;21.40;99.90
23452;DHT22;11898;51.130;6.780;2023-07-02T07:10:33;21.50;99.90
23452;DHT22;11898;51.130;6.780;2023-07-02T07:13:02;21.60;99.90
23452;DHT22;11898;51.130;6.780;2023-07-02T07:15:33;21.80;99.90
23452;DHT22;11898;51.130;6.780;2023-07-02T07:18:03;21.80;99.90
23452;DHT22;11898;51.130;6.780;2023-07-02T07:20:32;21.90;99.90
23452;DHT22;11898;51.130;6.780;2023-07-02T07:23:02;22.10;99.90
23452;DHT22;11898;51.130;6.780;2023-07-02T07:25:31;21.90;99.90
23452;DHT22;11898;51.130;6.780;2023-07-02T07:28:00;22.20;99.90
23452;DHT22;11898;51.130;6.780;2023-07-02T07:30:29;22.30;99.90
23452;DHT22;11898;51.130;6.780;2023-07-02T07:32:59;22.50;99.90
23452;DHT22;11898;51.130;6.780;2023-07-02T07:35:28;22.50;99.90
23452;DHT22;11898;51.130;6.780;2023-07-02T07:37:56;23.00;99.90
23452;DHT22;11898;51.130;6.780;2023-07-02T07:40:27;22.70;99.90
23452;DHT22;11898;51.130;6.780;2023-07-02T07:42:55;22.60;99.90
23452;DHT22;11898;51.130;6.780;2023-07-02T07:45:24;22.50;99.90
23452;DHT22;11898;51.130;6.780;2023-07-02T07:47:53;22.50;99.90
23452;DHT22;11898;51.130;6.780;2023-07-02T07:50:22;22.30;99.90
23452;DHT22;11898;51.130;6.780;2023-07-02T07:52:51;22.20;99.90
23452;DHT22;11898;51.130;6.780;2023-07-02T07:55:19;22.20;99.90
23452;DHT22;11898;51.130;6.780;2023-07-02T07:57:48;22.10;99.90
23452;DHT22;11898;51.130;6.780;2023-07-02T08:00:17;22.10;99.90
23452;DHT22;11898;51.130;6.780;2023-07-02T08:02:47;22.20;99.90
23452;DHT22;11898;51.130;6.780;2023-07-02T08:05:16;22.20;99.90
23452;DHT22;11898;51.130;6.780;2023-07-02T08:07:44;22.20;99.90
23452;DHT22;11898;51.130;6.780;2023-07-02T08:10:13;22.20;99.90
23452;DHT22;11898;51.130;6.780;2023-07-02T08:12:42;22.20;99.90
23452;DHT22;11898;51.130;6.780;2023-07-02T08:15:10;22.40;99.90
23452;DHT22;11898;51.130;6.780;2023-07-02T08:17:39;22.20;99.90
23452;DHT22;11898;51.130;6.780;2023-07-02T08:20:08;22.50;99.90
23452;DHT22;11898;51.130;6.780;2023-07-02T08:22:41;22.50;99.90
23452;DHT22;11898;51.130;6.780;2023-07-02T08:25:09;22.50;99.90
23452;DHT22;11898;51.130;6.780;2023-07-02T08:27:38;22.50;99.90
23452;DHT22;11898;51.130;6.780;2023-07-02T08:30:07;22.50;99.90
23452;DHT22;11898;51.130;6.780;2023-07-02T08:32:37;22.60;99.90
23452;DHT22;11898;51.130;6.780;2023-07-02T08:35:06;22.60;99.90
23452;DHT22;11898;51.130;6.780;2023-07-02T08:37:36;22.60;99.90
23452;DHT22;11898;51.130;6.780;2023-07-02T08:40:18;22.70;99.90
23452;DHT22;11898;51.130;6.780;2023-07-02T08:42:47;22.70;99.90
23452;DHT22;11898;51.130;6.780;2023-07-02T08:45:16;22.70;99.90
23452;DHT22;11898;51.130;6.780;2023-07-02T08:47:46;22.70;99.90
23452;DHT22;11898;51.130;6.780;2023-07-02T08:50:16;22.50;99.90
23452;DHT22;11898;51.130;6.780;2023-07-02T08:52:45;22.50;99.90
23452;DHT22;11898;51.130;6.780;2023-07-02T08:55:13;22.30;99.90
23452;DHT22;11898;51.130;6.780;2023-07-02T08:57:53;22.50;99.90
23452;DHT22;11898;51.130;6.780;2023-07-02T09:00:20;22.40;99.90
23452;DHT22;11898;51.130;6.780;2023-07-02T09:02:50;22.50;99.90
23452;DHT22;11898;51.130;6.780;2023-07-02T09:05:19;22.60;99.90
23452;DHT22;11898;51.130;6.780;2023-07-02T09:07:49;22.80;99.90
23452;DHT22;11898;51.130;6.780;2023-07-02T09:10:28;22.80;99.90
23452;DHT22;11898;51.130;6.780;2023-07-02T09:13:05;22.90;99.90
23452;DHT22;11898;51.130;6.780;2023-07-02T09:15:42;22.80;99.90
23452;DHT22;11898;51.130;6.780;2023-07-02T09:18:21;22.70;99.90
23452;DHT22;11898;51.130;6.780;2023-07-02T09:20:54;22.70;99.90
23452;DHT22;11898;51.130;6.780;2023-07-02T09:23:31;22.60;99.90
23452;DHT22;11898;51.130;6.780;2023-07-02T09:25:53;22.40;99.90
23452;DHT22;11898;51.130;6.780;2023-07-02T09:28:22;22.30;99.90
23452;DHT22;11898;51.130;6.780;2023-07-02T09:30:55;22.30;99.90
23452;DHT22;11898;51.130;6.780;2023-07-02T09:33:25;22.20;99.90
23452;DHT22;11898;51.130;6.780;2023-07-02T09:35:54;22.30;99.90
23452;DHT22;11898;51.130;6.780;2023-07-02T09:38:23;22.30;99.90
23452;DHT22;11898;51.130;6.780;2023-07-02T09:40:53;22.30;99.90
23452;DHT22;11898;51.130;6.780;2023-07-02T09:43:22;22.50;99.90
23452;DHT22;11898;51.130;6.780;2023-07-02T09:45:55;22.50;99.90
23452;DHT22;11898;51.130;6.780;2023-07-02T09:48:25;22.40;99.90
23452;DHT22;11898;51.130;6.780;2023-07-02T09:50:55;22.30;99.90
23452;DHT22;11898;51.130;6.780;2023-07-02T09:53:28;22.50;99.90
23452;DHT22;11898;51.130;6.780;2023-07-02T09:55:57;22.40;99.90
23452;DHT22;11898;51.130;6.780;2023-07-02T09:58:25;22.40;99.90
23452;DHT22;11898;51.130;6.780;2023-07-02T10:00:54;22.20;99.90
23452;DHT22;11898;51.130;6.780;2023-07-02T10:03:31;22.70;99.90
23452;DHT22;11898;51.130;6.780;2023-07-02T10:06:05;22.50;99.90
23452;DHT22;11898;51.130;6.780;2023-07-02T10:08:34;22.90;99.90
23452;DHT22;11898;51.130;6.780;2023-07-02T10:11:14;23.10;99.90
23452;DHT22;11898;51.130;6.780;2023-07-02T10:13:40;23.30;99.90
23452;DHT22;11898;51.130;6.780;2023-07-02T10:16:11;23.40;99.90
23452;DHT22;11898;51.130;6.780;2023-07-02T10:18:40;24.30;99.90
23452;DHT22;11898;51.130;6.780;2023-07-02T10:21:17;23.60;99.90
23452;DHT22;11898;51.130;6.780;2023-07-02T10:23:46;23.60;99.90
23452;DHT22;11898;51.130;6.780;2023-07-02T10:26:16;23.70;99.90
23452;DHT22;11898;51.130;6.780;2023-07-02T10:29:00;23.80;99.90
23452;DHT22;11898;51.130;6.780;2023-07-02T10:31:30;23.70;99.90
23452;DHT22;11898;51.130;6.780;2023-07-02T10:33:58;23.60;99.90
23452;DHT22;11898;51.130;6.780;2023-07-02T10:36:27;23.60;99.90
23452;DHT22;11898;51.130;6.780;2023-07-02T10:39:01;23.40;99.90
23452;DHT22;11898;51.130;6.780;2023-07-02T10:41:29;23.40;99.90
23452;DHT22;11898;51.130;6.780;2023-07-02T10:44:10;23.40;99.90
23452;DHT22;11898;51.130;6.780;2023-07-02T10:46:48;23.30;99.90
23452;DHT22;11898;51.130;6.780;2023-07-02T10:49:17;23.10;99.90
23452;DHT22;11898;51.130;6.780;2023-07-02T10:51:56;22.90;99.90
23452;DHT22;11898;51.130;6.780;2023-07-02T10:54:17;22.70;99.90
23452;DHT22;11898;51.130;6.780;2023-07-02T10:56:46;22.60;99.90
23452;DHT22;11898;51.130;6.780;2023-07-02T10:59:27;22.50;99.90
23452;DHT22;11898;51.130;6.780;2023-07-02T11:01:52;22.50;99.90
23452;DHT22;11898;51.130;6.780;2023-07-02T11:04:22;22.60;99.90
23452;DHT22;11898;51.130;6.780;2023-07-02T11:06:52;22.80;99.90
23452;DHT22;11898;51.130;6.780;2023-07-02T11:09:20;23.10;99.90
23452;DHT22;11898;51.130;6.780;2023-07-02T11:11:57;23.40;99.90
23452;DHT22;11898;51.130;6.780;2023-07-02T11:14:45;23.60;99.90
23452;DHT22;11898;51.130;6.780;2023-07-02T11:17:14;23.70;99.90
23452;DHT22;11898;51.130;6.780;2023-07-02T11:19:49;23.70;99.90
23452;DHT22;11898;51.130;6.780;2023-07-02T11:22:15;23.60;99.90
23452;DHT22;11898;51.130;6.780;2023-07-02T11:24:43;23.60;99.90
23452;DHT22;11898;51.130;6.780;2023-07-02T11:27:20;23.50;99.90
23452;DHT22;11898;51.130;6.780;2023-07-02T11:29:44;23.30;99.90
23452;DHT22;11898;51.130;6.780;2023-07-02T11:32:12;24.20;99.90
23452;DHT22;11898;51.130;6.780;2023-07-02T11:34:41;23.10;99.90
23452;DHT22;11898;51.130;6.780;2023-07-02T11:37:10;23.00;99.90
23452;DHT22;11898;51.130;6.780;2023-07-02T11:39:39;23.00;99.90
23452;DHT22;11898;51.130;6.780;2023-07-02T11:42:07;23.00;99.90
23452;DHT22;11898;51.130;6.780;2023-07-02T11:44:36;23.10;99.90
23452;DHT22;11898;51.130;6.780;2023-07-02T11:47:05;23.20;99.90
23452;DHT22;11898;51.130;6.780;2023-07-02T11:49:34;23.30;99.90
23452;DHT22;11898;51.130;6.780;2023-07-02T11:52:03;23.60;99.90
23452;DHT22;11898;51.130;6.780;2023-07-02T11:54:32;23.90;99.90
23452;DHT22;11898;51.130;6.780;2023-07-02T21:40:57;24.20;99.90
23452;DHT22;11898;51.130;6.780;2023-07-02T21:43:26;22.00;99.90
23452;DHT22;11898;51.130;6.780;2023-07-02T21:45:56;21.70;99.90
23452;DHT22;11898;51.130;6.780;2023-07-02T21:48:25;21.70;99.90
23452;DHT22;11898;51.130;6.780;2023-07-02T21:50:53;21.60;99.90
23452;DHT22;11898;51.130;6.780;2023-07-02T21:53:22;21.60;99.90
23452;DHT22;11898;51.130;6.780;2023-07-02T21:55:51;21.50;99.90
23452;DHT22;11898;51.130;6.780;2023-07-02T21:58:20;21.50;99.90
23452;DHT22;11898;51.130;6.780;2023-07-02T22:00:49;21.50;99.90
23452;DHT22;11898;51.130;6.780;2023-07-02T22:03:18;21.40;99.90
23452;DHT22;11898;51.130;6.780;2023-07-02T22:05:51;21.30;99.90
23452;DHT22;11898;51.130;6.780;2023-07-02T22:08:21;21.20;99.90
23452;DHT22;11898;51.130;6.780;2023-07-02T22:10:50;21.20;99.90
23452;DHT22;11898;51.130;6.780;2023-07-02T22:13:19;21.20;99.90
23452;DHT22;11898;51.130;6.780;2023-07-02T22:15:48;21.10;99.90
23452;DHT22;11898;51.130;6.780;2023-07-02T22:18:17;21.00;99.90
23452;DHT22;11898;51.130;6.780;2023-07-02T22:20:47;21.00;99.90
23452;DHT22;11898;51.130;6.780;2023-07-02T22:23:16;21.00;99.90
23452;DHT22;11898;51.130;6.780;2023-07-02T22:25:45;20.90;99.90
23452;DHT22;11898;51.130;6.780;2023-07-02T22:28:13;20.80;99.90
23452;DHT22;11898;51.130;6.780;2023-07-02T22:30:42;20.80;99.90
23452;DHT22;11898;51.130;6.780;2023-07-02T22:33:10;20.80;99.90
23452;DHT22;11898;51.130;6.780;2023-07-02T22:35:39;20.70;99.90
23452;DHT22;11898;51.130;6.780;2023-07-02T22:38:08;20.60;99.90
23452;DHT22;11898;51.130;6.780;2023-07-02T22:40:38;20.60;99.90
23452;DHT22;11898;51.130;6.780;2023-07-02T22:43:07;20.60;99.90
23452;DHT22;11898;51.130;6.780;2023-07-02T22:45:36;20.60;99.90
23452;DHT22;11898;51.130;6.780;2023-07-02T22:48:05;20.40;99.90
23452;DHT22;11898;51.130;6.780;2023-07-02T22:50:34;20.40;99.90
23452;DHT22;11898;51.130;6.780;2023-07-02T22:53:03;20.30;99.90
23452;DHT22;11898;51.130;6.780;2023-07-02T22:55:31;20.30;99.90
23452;DHT22;11898;51.130;6.780;2023-07-02T22:58:00;20.20;99.90
23452;DHT22;11898;51.130;6.780;2023-07-02T23:00:30;20.40;99.90
23452;DHT22;11898;51.130;6.780;2023-07-02T23:02:59;20.20;99.90
23452;DHT22;11898;51.130;6.780;2023-07-02T23:05:28;20.50;99.90
23452;DHT22;11898;51.130;6.780;2023-07-02T23:07:57;20.00;99.90
23452;DHT22;11898;51.130;6.780;2023-07-02T23:10:25;20.00;99.90
23452;DHT22;11898;51.130;6.780;2023-07-02T23:12:54;19.90;99.90
23452;DHT22;11898;51.130;6.780;2023-07-02T23:15:23;19.90;99.90
23452;DHT22;11898;51.130;6.780;2023-07-02T23:17:53;19.90;99.90
23452;DHT22;11898;51.130;6.780;2023-07-02T23:20:22;19.90;99.90
23452;DHT22;11898;51.130;6.780;2023-07-02T23:22:51;19.80;99.90
23452;DHT22;11898;51.130;6.780;2023-07-02T23:25:22;19.70;99.90
23452;DHT22;11898;51.130;6.780;2023-07-02T23:27:53;19.70;99.90
23452;DHT22;11898;51.130;6.780;2023-07-02T23:30:24;19.40;99.90
23452;DHT22;11898;51.130;6.780;2023-07-02T23:32:54;19.70;99.90
23452;DHT22;11898;51.130;6.780;2023-07-02T23:35:22;19.60;99.90
23452;DHT22;11898;51.130;6.780;2023-07-02T23:37:51;19.50;99.90
23452;DHT22;11898;51.130;6.780;2023-07-02T23:40:23;19.50;99.90
23452;DHT22;11898;51.130;6.780;2023-07-02T23:42:52;19.40;99.90
23452;DHT22;11898;51.130;6.780;2023-07-02T23:45:20;19.40;99.90
23452;DHT22;11898;51.130;6.780;2023-07-02T23:47:49;19.30;99.90
23452;DHT22;11898;51.130;6.780;2023-07-02T23:50:19;19.40;99.90
23452;DHT22;11898;51.130;6.780;2023-07-02T23:52:47;19.10;99.90
23452;DHT22;11898;51.130;6.780;2023-07-02T23:55:17;19.10;99.90
23452;DHT22;11898;51.130;6.780;2023-07-02T23:57:46;19.00;99.90
